Time;durP1;ratioP1;P1;durP2;ratioP2;P2;SDS_P1;SDS_P2;PMS_P1;PMS_P2;Temp;Humidity;BMP_temperature;BMP_pressure;BME280_temperature;BME280_humidity;BME280_pressure;Samples;Min_cycle;Max_cycle;Signal;HPM_P1;HPM_P2
2024/04/06 00:02:04;;;;;;;;;;;;;;;21.23;37.52;101290.04;103042;1294;63016;-78
2024/04/06 00:04:30;;;;;;;;;;;;;;;21.22;37.55;101289.70;103097;1292;64124;-79
2024/04/06 00:06:56;;;;;;;;;;;;;;;21.22;37.58;101290.41;103052;1292;63774;-78
2024/04/06 00:09:22;;;;;;;;;;;;;;;21.22;37.48;101286.11;102863;1289;63694;-78
2024/04/06 00:11:48;;;;;;;;;;;;;;;21.22;37.44;101285.61;103098;1291;63906;-78
2024/04/06 00:14:13;;;;;;;;;;;;;;;21.22;37.66;101279.73;103059;1292;64276;-78
2024/04/06 00:16:39;;;;;;;;;;;;;;;21.21;37.60;101273.13;103079;1290;63753;-78
2024/04/06 00:19:06;;;;;;;;;;;;;;;21.20;37.47;101267.27;102904;1290;63014;-78
2024/04/06 00:21:32;;;;;;;;;;;;;;;21.21;37.46;101261.33;103099;1289;64111;-78
2024/04/06 00:23:58;;;;;;;;;;;;;;;21.21;37.58;101257.77;103080;1294;63029;-78
2024/04/06 00:26:24;;;;;;;;;;;;;;;21.20;37.57;101256.36;103065;1289;62950;-78
2024/04/06 00:28:50;;;;;;;;;;;;;;;21.21;37.66;101255.63;103084;1294;62980;-78
2024/04/06 00:31:15;;;;;;;;;;;;;;;21.21;37.62;101254.37;103066;1292;63854;-78
2024/04/06 00:33:41;;;;;;;;;;;;;;;21.20;37.70;101249.38;103106;1291;62899;-78
2024/04/06 00:36:07;;;;;;;;;;;;;;;21.20;37.70;101247.05;103084;1289;63039;-78
2024/04/06 00:38:33;;;;;;;;;;;;;;;21.20;37.71;101239.59;103068;1291;63527;-78
2024/04/06 00:40:59;;;;;;;;;;;;;;;21.20;37.73;101231.50;102891;1289;62940;-78
2024/04/06 00:43:27;;;;;;;;;;;;;;;21.19;37.80;101226.89;102834;1291;63097;-80
2024/04/06 00:45:52;;;;;;;;;;;;;;;21.20;37.70;101228.13;102916;1294;63024;-78
2024/04/06 00:48:18;;;;;;;;;;;;;;;21.20;37.71;101225.08;102934;1292;63705;-78
2024/04/06 00:50:44;;;;;;;;;;;;;;;21.20;37.69;101234.57;102844;1292;63696;-78
2024/04/06 00:53:09;;;;;;;;;;;;;;;21.19;37.75;101231.91;102906;1291;64016;-78
2024/04/06 00:55:35;;;;;;;;;;;;;;;21.19;37.69;101228.17;102889;1291;63387;-78
2024/04/06 00:58:00;;;;;;;;;;;;;;;21.19;37.68;101225.83;102834;1294;62943;-78
2024/04/06 01:00:26;;;;;;;;;;;;;;;21.18;37.63;101226.27;102855;1294;62974;-79
2024/04/06 01:02:52;;;;;;;;;;;;;;;21.19;37.60;101227.85;103109;1292;63759;-79
2024/04/06 01:05:17;;;;;;;;;;;;;;;21.18;37.64;101230.17;103075;1294;64237;-78
2024/04/06 01:07:45;;;;;;;;;;;;;;;21.19;37.66;101230.52;103079;1291;62953;-79
2024/04/06 01:10:11;;;;;;;;;;;;;;;21.19;37.66;101226.95;102873;1294;72595;-79
2024/04/06 01:12:37;;;;;;;;;;;;;;;21.18;37.64;101228.05;103034;1290;62926;-78
2024/04/06 01:15:03;;;;;;;;;;;;;;;21.18;37.66;101231.61;102883;1292;63085;-78
2024/04/06 01:17:28;;;;;;;;;;;;;;;21.18;37.76;101235.58;102851;1291;63804;-79
2024/04/06 01:19:54;;;;;;;;;;;;;;;21.18;37.59;101235.05;103063;1294;63030;-79
2024/04/06 01:22:19;;;;;;;;;;;;;;;21.18;37.67;101238.47;103039;1289;63629;-78
2024/04/06 01:24:45;;;;;;;;;;;;;;;21.17;37.62;101239.02;102811;1289;75986;-79
2024/04/06 01:27:10;;;;;;;;;;;;;;;21.17;37.66;101241.88;103078;1294;63029;-79
2024/04/06 01:29:36;;;;;;;;;;;;;;;21.17;37.72;101242.77;103047;1290;63011;-78
2024/04/06 01:32:02;;;;;;;;;;;;;;;21.17;37.70;101243.15;103118;1290;63023;-78
2024/04/06 01:34:28;;;;;;;;;;;;;;;21.17;37.67;101240.29;103051;1292;63007;-79
2024/04/06 01:36:55;;;;;;;;;;;;;;;21.17;37.64;101237.08;102954;1295;63923;-78
2024/04/06 01:39:20;;;;;;;;;;;;;;;21.17;37.66;101239.25;103003;1290;62872;-80
2024/04/06 01:41:47;;;;;;;;;;;;;;;21.17;37.71;101245.68;103018;1289;63032;-78
2024/04/06 01:44:12;;;;;;;;;;;;;;;21.17;37.72;101247.48;102877;1294;62959;-79
2024/04/06 01:46:38;;;;;;;;;;;;;;;21.16;37.80;101251.79;102862;1292;63309;-79
2024/04/06 01:49:03;;;;;;;;;;;;;;;21.16;37.54;101261.65;102876;1292;63005;-78
2024/04/06 01:51:29;;;;;;;;;;;;;;;21.17;37.83;101266.80;103055;1294;62940;-79
2024/04/06 01:53:54;;;;;;;;;;;;;;;21.17;37.79;101259.65;102883;1292;63049;-77
2024/04/06 01:56:20;;;;;;;;;;;;;;;21.17;37.77;101262.70;102866;1294;63093;-79
2024/04/06 01:58:46;;;;;;;;;;;;;;;21.16;37.81;101269.17;103099;1294;64197;-78
2024/04/06 02:01:12;;;;;;;;;;;;;;;21.16;37.66;101270.41;102711;1291;63395;-78
2024/04/06 02:03:38;;;;;;;;;;;;;;;21.16;37.66;101270.82;102950;1291;63086;-78
2024/04/06 02:06:04;;;;;;;;;;;;;;;21.16;37.61;101272.09;103022;1292;63097;-78
2024/04/06 02:08:30;;;;;;;;;;;;;;;21.15;37.75;101277.29;103056;1294;72566;-78
2024/04/06 02:10:55;;;;;;;;;;;;;;;21.15;37.72;101278.34;103050;1292;63029;-78
2024/04/06 02:13:21;;;;;;;;;;;;;;;21.15;37.76;101277.98;103079;1291;62990;-78
2024/04/06 02:15:47;;;;;;;;;;;;;;;21.15;37.80;101278.02;103054;1289;63026;-78
2024/04/06 02:18:12;;;;;;;;;;;;;;;21.15;37.82;101279.27;102827;1291;64254;-79
2024/04/06 02:20:42;;;;;;;;;;;;;;;21.15;37.74;101282.30;102849;1291;72470;-78
2024/04/06 02:23:07;;;;;;;;;;;;;;;21.15;37.84;101285.54;102391;1291;637697;-80
2024/04/06 02:25:33;;;;;;;;;;;;;;;21.15;37.81;101282.67;102720;1292;62940;-79
2024/04/06 02:27:58;;;;;;;;;;;;;;;21.14;37.70;101284.68;102851;1292;63065;-78
2024/04/06 02:30:24;;;;;;;;;;;;;;;21.15;37.76;101288.95;103048;1292;64543;-78
2024/04/06 02:32:50;;;;;;;;;;;;;;;21.15;37.80;101286.06;102879;1292;63075;-79
2024/04/06 02:35:15;;;;;;;;;;;;;;;21.14;37.76;101281.80;102947;1290;63096;-79
2024/04/06 02:37:44;;;;;;;;;;;;;;;21.15;37.80;101273.03;102862;1291;63022;-78
2024/04/06 02:40:10;;;;;;;;;;;;;;;21.14;37.74;101268.40;102847;1291;63042;-79
2024/04/06 02:42:36;;;;;;;;;;;;;;;21.15;37.65;101265.34;103016;1290;63001;-78
2024/04/06 02:45:03;;;;;;;;;;;;;;;21.14;37.80;101268.77;103084;1294;63362;-79
2024/04/06 02:47:28;;;;;;;;;;;;;;;21.14;37.71;101272.00;103121;1291;63683;-78
2024/04/06 02:49:55;;;;;;;;;;;;;;;21.14;37.86;101270.58;102866;1291;63726;-79
2024/04/06 02:52:21;;;;;;;;;;;;;;;21.14;37.83;101269.52;102886;1294;63022;-77
2024/04/06 02:54:48;;;;;;;;;;;;;;;21.13;37.77;101268.45;102868;1291;64548;-78
2024/04/06 02:57:13;;;;;;;;;;;;;;;21.14;37.77;101267.19;103035;1292;63100;-78
2024/04/06 02:59:39;;;;;;;;;;;;;;;21.14;37.88;101261.46;102879;1291;63064;-80
2024/04/06 03:02:05;;;;;;;;;;;;;;;21.14;37.69;101262.17;102918;1291;63009;-78
2024/04/06 03:04:31;;;;;;;;;;;;;;;21.13;37.76;101259.86;102870;1294;72331;-78
2024/04/06 03:06:57;;;;;;;;;;;;;;;21.13;37.68;101254.70;103027;1291;63020;-78
2024/04/06 03:09:23;;;;;;;;;;;;;;;21.13;37.73;101253.66;102909;1291;63836;-79
2024/04/06 03:11:48;;;;;;;;;;;;;;;21.13;37.86;101252.05;102876;1291;64129;-78
2024/04/06 03:14:14;;;;;;;;;;;;;;;21.13;37.75;101248.80;102837;1297;63004;-79
2024/04/06 03:16:40;;;;;;;;;;;;;;;21.12;37.77;101248.48;103064;1290;62939;-79
2024/04/06 03:19:06;;;;;;;;;;;;;;;21.13;37.87;101252.56;103022;1294;75861;-79
2024/04/06 03:21:31;;;;;;;;;;;;;;;21.12;37.69;101257.27;102878;1292;63068;-78
2024/04/06 03:23:57;;;;;;;;;;;;;;;21.12;37.77;101265.11;103228;1289;63025;-78
2024/04/06 03:26:22;;;;;;;;;;;;;;;21.12;37.64;101269.77;103028;1294;64037;-79
2024/04/06 03:28:48;;;;;;;;;;;;;;;21.13;37.81;101274.60;103118;1292;62994;-78
2024/04/06 03:31:14;;;;;;;;;;;;;;;21.12;37.76;101276.42;103022;1293;76150;-77
2024/04/06 03:33:40;;;;;;;;;;;;;;;21.12;37.79;101277.46;102957;1291;62981;-78
2024/04/06 03:36:05;;;;;;;;;;;;;;;21.12;37.71;101273.91;103158;1291;63190;-79
2024/04/06 03:38:31;;;;;;;;;;;;;;;21.12;37.81;101278.17;103145;1293;63029;-79
2024/04/06 03:40:58;;;;;;;;;;;;;;;21.13;37.71;101283.73;102882;1291;63736;-79
2024/04/06 03:43:24;;;;;;;;;;;;;;;21.12;37.82;101281.42;102934;1294;63841;-78
2024/04/06 03:45:50;;;;;;;;;;;;;;;21.12;37.88;101283.75;102922;1291;64377;-79
2024/04/06 03:48:16;;;;;;;;;;;;;;;21.12;37.73;101286.27;102860;1290;63523;-79
2024/04/06 03:50:41;;;;;;;;;;;;;;;21.12;37.69;101284.65;102905;1294;63014;-78
2024/04/06 03:53:07;;;;;;;;;;;;;;;21.12;37.76;101291.13;103098;1291;63548;-79
2024/04/06 03:55:33;;;;;;;;;;;;;;;21.12;37.87;101290.56;103023;1291;63747;-79
2024/04/06 03:57:59;;;;;;;;;;;;;;;21.11;37.77;101289.52;102879;1291;63084;-79
2024/04/06 04:00:24;;;;;;;;;;;;;;;21.11;37.70;101286.16;102938;1294;62985;-79
2024/04/06 04:02:50;;;;;;;;;;;;;;;21.11;37.73;101281.33;102876;1292;63023;-78
2024/04/06 04:05:16;;;;;;;;;;;;;;;21.11;37.77;101279.90;103126;1294;63023;-77
2024/04/06 04:07:41;;;;;;;;;;;;;;;21.10;37.78;101280.45;102933;1289;63621;-77
2024/04/06 04:10:07;;;;;;;;;;;;;;;21.10;37.94;101282.95;103066;1291;62944;-78
2024/04/06 04:12:33;;;;;;;;;;;;;;;21.10;37.78;101282.42;102902;1291;63007;-78
2024/04/06 04:15:05;;;;;;;;;;;;;;;21.10;37.74;101287.96;102854;1291;63632;-79
2024/04/06 04:17:32;;;;;;;;;;;;;;;21.10;37.74;101294.23;102886;1291;63305;-79
2024/04/06 04:20:01;;;;;;;;;;;;;;;21.10;37.87;101299.46;103221;1290;62914;-78
2024/04/06 04:22:26;;;;;;;;;;;;;;;21.10;37.77;101296.75;102869;1291;72701;-78
2024/04/06 04:24:52;;;;;;;;;;;;;;;21.09;37.80;101295.69;102870;1292;63455;-78
2024/04/06 04:27:18;;;;;;;;;;;;;;;21.09;37.88;101302.32;102919;1292;64153;-78
2024/04/06 04:29:44;;;;;;;;;;;;;;;21.09;37.72;101303.60;103086;1291;63959;-78
2024/04/06 04:32:10;;;;;;;;;;;;;;;21.09;37.80;101305.73;102914;1297;63966;-78
2024/04/06 04:34:36;;;;;;;;;;;;;;;21.10;37.82;101302.87;103125;1290;64056;-79
2024/04/06 04:37:03;;;;;;;;;;;;;;;21.09;37.78;101306.81;102951;1294;63011;-79
2024/04/06 04:39:30;;;;;;;;;;;;;;;21.09;37.69;101307.35;103059;1289;63148;-79
2024/04/06 04:41:56;;;;;;;;;;;;;;;21.09;37.73;101306.45;103102;1291;62950;-80
2024/04/06 04:44:21;;;;;;;;;;;;;;;21.09;37.74;101307.91;103029;1291;64171;-78
2024/04/06 04:46:47;;;;;;;;;;;;;;;21.08;37.82;101301.33;103098;1291;64047;-77
2024/04/06 04:49:12;;;;;;;;;;;;;;;21.08;37.75;101302.58;103066;1292;63630;-78
2024/04/06 04:51:38;;;;;;;;;;;;;;;21.08;37.78;101298.11;103108;1292;63006;-79
2024/04/06 04:54:04;;;;;;;;;;;;;;;21.08;37.79;101296.34;103084;1290;62994;-78
2024/04/06 04:56:29;;;;;;;;;;;;;;;21.08;37.80;101295.11;102939;1292;64206;-79
2024/04/06 04:58:55;;;;;;;;;;;;;;;21.08;37.83;101295.65;103110;1291;64181;-75
2024/04/06 05:01:21;;;;;;;;;;;;;;;21.08;37.73;101297.60;103106;1289;63106;-79
2024/04/06 05:03:46;;;;;;;;;;;;;;;21.07;37.77;101294.42;102876;1294;63385;-76
2024/04/06 05:06:12;;;;;;;;;;;;;;;21.07;37.81;101296.76;103043;1289;62967;-79
2024/04/06 05:08:37;;;;;;;;;;;;;;;21.07;37.87;101300.91;103056;1292;63072;-79
2024/04/06 05:11:03;;;;;;;;;;;;;;;21.06;37.79;101303.42;102892;1292;63073;-79
2024/04/06 05:13:29;;;;;;;;;;;;;;;21.07;37.75;101296.41;103021;1291;63033;-79
2024/04/06 05:15:55;;;;;;;;;;;;;;;21.06;37.76;101299.13;103106;1294;63065;-78
2024/04/06 05:18:23;;;;;;;;;;;;;;;21.06;37.66;101297.35;102886;1292;62946;-79
2024/04/06 05:20:52;;;;;;;;;;;;;;;21.06;37.78;101295.76;102882;1294;72926;-80
2024/04/06 05:23:18;;;;;;;;;;;;;;;21.06;37.78;101300.56;102911;1290;74985;-79
2024/04/06 05:25:45;;;;;;;;;;;;;;;21.07;37.89;101299.30;102969;1291;63099;-80
2024/04/06 05:28:10;;;;;;;;;;;;;;;21.06;37.76;101304.33;103144;1291;64064;-79
2024/04/06 05:30:36;;;;;;;;;;;;;;;21.06;37.81;101305.59;103021;1289;63073;-79
2024/04/06 05:33:01;;;;;;;;;;;;;;;21.05;37.77;101302.61;103002;1294;63045;-79
2024/04/06 05:35:27;;;;;;;;;;;;;;;21.04;37.88;101300.16;102980;1291;62951;-79
2024/04/06 05:37:53;;;;;;;;;;;;;;;21.03;37.73;101299.37;103164;1289;63065;-79
2024/04/06 05:40:19;;;;;;;;;;;;;;;21.01;37.76;101301.09;103182;1292;64046;-79
2024/04/06 05:42:45;;;;;;;;;;;;;;;21.01;38.01;101302.17;103247;1294;62939;-78
2024/04/06 05:45:11;;;;;;;;;;;;;;;21.01;37.74;101301.11;103111;1290;62971;-78
2024/04/06 05:47:36;;;;;;;;;;;;;;;21.01;37.83;101297.52;102942;1294;62884;-78
2024/04/06 05:50:02;;;;;;;;;;;;;;;21.01;37.92;101301.26;102904;1291;63286;-78
2024/04/06 05:52:28;;;;;;;;;;;;;;;21.01;37.70;101299.30;103224;1294;64082;-80
2024/04/06 05:54:53;;;;;;;;;;;;;;;21.01;37.73;101296.95;103204;1292;63761;-78
2024/04/06 05:57:19;;;;;;;;;;;;;;;21.02;37.76;101290.62;103094;1291;63821;-76
2024/04/06 05:59:45;;;;;;;;;;;;;;;21.03;37.78;101290.20;103200;1292;63056;-78
2024/04/06 06:02:10;;;;;;;;;;;;;;;21.04;37.72;101286.55;103246;1290;63080;-79
2024/04/06 06:04:36;;;;;;;;;;;;;;;21.05;37.75;101287.24;102973;1291;63430;-79
2024/04/06 06:07:01;;;;;;;;;;;;;;;21.05;37.86;101287.75;102959;1291;63062;-78
2024/04/06 06:09:27;;;;;;;;;;;;;;;21.07;37.83;101292.83;102974;1294;63090;-79
2024/04/06 06:11:53;;;;;;;;;;;;;;;21.07;37.91;101297.28;103056;1291;63061;-78
2024/04/06 06:14:18;;;;;;;;;;;;;;;21.08;37.85;101301.84;103175;1294;63715;-78
2024/04/06 06:16:44;;;;;;;;;;;;;;;21.09;37.87;101304.67;103061;1291;63007;-79
2024/04/06 06:19:09;;;;;;;;;;;;;;;21.11;37.95;101300.29;103036;1294;63093;-80
2024/04/06 06:21:35;;;;;;;;;;;;;;;21.13;37.96;101301.96;102977;1292;63684;-79
2024/04/06 06:24:00;;;;;;;;;;;;;;;21.14;38.12;101304.05;103053;1291;64240;-78
2024/04/06 06:26:26;;;;;;;;;;;;;;;21.15;38.20;101309.36;103006;1291;64021;-79
2024/04/06 06:28:51;;;;;;;;;;;;;;;21.15;38.05;101310.20;103141;1291;63639;-79
2024/04/06 06:31:17;;;;;;;;;;;;;;;21.17;38.07;101308.69;102987;1291;63096;-78
2024/04/06 06:33:43;;;;;;;;;;;;;;;21.18;38.08;101313.14;102928;1290;76082;-79
2024/04/06 06:36:13;;;;;;;;;;;;;;;21.19;38.15;101318.21;103246;1294;63007;-79
2024/04/06 06:38:40;;;;;;;;;;;;;;;21.21;38.41;101324.33;103207;1291;63030;-80
2024/04/06 06:41:05;;;;;;;;;;;;;;;21.23;38.35;101328.85;103226;1294;63274;-78
2024/04/06 06:43:31;;;;;;;;;;;;;;;21.25;38.56;101332.69;103594;1290;63039;-78
2024/04/06 06:45:57;;;;;;;;;;;;;;;21.28;38.72;101338.23;103577;1294;62937;-79
2024/04/06 06:48:22;;;;;;;;;;;;;;;21.30;38.93;101343.13;103242;1292;64138;-79
2024/04/06 06:50:49;;;;;;;;;;;;;;;21.32;39.05;101342.85;103248;1291;62899;-78
2024/04/06 06:53:14;;;;;;;;;;;;;;;21.34;39.19;101346.64;103618;1290;72265;-78
2024/04/06 06:55:40;;;;;;;;;;;;;;;21.36;39.41;101349.16;103244;1297;63026;-78
2024/04/06 06:58:06;;;;;;;;;;;;;;;21.38;39.35;101348.01;103255;1294;63286;-79
2024/04/06 07:00:31;;;;;;;;;;;;;;;21.40;39.51;101347.85;103315;1291;63827;-80
2024/04/06 07:02:58;;;;;;;;;;;;;;;21.42;39.47;101346.67;103799;1291;62937;-80
2024/04/06 07:05:23;;;;;;;;;;;;;;;21.43;39.57;101344.05;103654;1290;63060;-79
2024/04/06 07:07:53;;;;;;;;;;;;;;;21.46;39.78;101345.16;103568;1294;76016;-77
2024/04/06 07:10:19;;;;;;;;;;;;;;;21.47;39.74;101344.91;103522;1291;62988;-77
2024/04/06 07:12:45;;;;;;;;;;;;;;;21.48;39.72;101347.00;103388;1291;62962;-78
2024/04/06 07:15:10;;;;;;;;;;;;;;;21.48;39.84;101345.73;103494;1292;62993;-78
2024/04/06 07:17:36;;;;;;;;;;;;;;;21.49;39.75;101344.27;103338;1291;63098;-77
2024/04/06 07:20:01;;;;;;;;;;;;;;;21.49;39.89;101349.29;103283;1294;62952;-77
2024/04/06 07:22:27;;;;;;;;;;;;;;;21.46;39.88;101347.08;103522;1289;63100;-77
2024/04/06 07:24:52;;;;;;;;;;;;;;;21.45;39.71;101344.30;103148;1292;62962;-78
2024/04/06 07:27:20;;;;;;;;;;;;;;;21.45;39.68;101341.28;103236;1290;64554;-77
2024/04/06 07:29:46;;;;;;;;;;;;;;;21.44;39.68;101345.45;103483;1293;63014;-77
2024/04/06 07:32:11;;;;;;;;;;;;;;;21.42;39.56;101341.09;103120;1291;63095;-78
2024/04/06 07:34:37;;;;;;;;;;;;;;;21.42;39.46;101337.18;103201;1291;63949;-79
2024/04/06 07:37:03;;;;;;;;;;;;;;;21.41;39.35;101335.79;103374;1291;63072;-79
2024/04/06 07:39:29;;;;;;;;;;;;;;;21.40;39.36;101334.60;103279;1294;62896;-78
2024/04/06 07:41:55;;;;;;;;;;;;;;;21.39;39.27;101324.65;103173;1291;63492;-79
2024/04/06 07:44:20;;;;;;;;;;;;;;;21.39;39.20;101319.27;103682;1291;63000;-79
2024/04/06 07:46:46;;;;;;;;;;;;;;;21.39;39.27;101318.17;103663;1290;62993;-79
2024/04/06 07:49:12;;;;;;;;;;;;;;;21.40;39.10;101315.98;103497;1294;62903;-79
2024/04/06 07:51:39;;;;;;;;;;;;;;;21.39;39.16;101317.30;103317;1292;63276;-79
2024/04/06 07:54:05;;;;;;;;;;;;;;;21.38;39.08;101322.71;103470;1292;62991;-79
2024/04/06 07:56:31;;;;;;;;;;;;;;;21.39;38.94;101325.36;103206;1289;64578;-79
2024/04/06 07:58:56;;;;;;;;;;;;;;;21.36;38.62;101324.30;103745;1291;63006;-78
2024/04/06 08:01:22;;;;;;;;;;;;;;;21.32;38.62;101322.40;103802;1293;62997;-77
2024/04/06 08:03:47;;;;;;;;;;;;;;;21.31;38.64;101323.34;103408;1291;63182;-78
2024/04/06 08:06:16;;;;;;;;;;;;;;;21.32;38.43;101325.06;103391;1290;62981;-80
2024/04/06 08:08:43;;;;;;;;;;;;;;;21.32;38.46;101324.34;103352;1291;62967;-79
2024/04/06 08:11:08;;;;;;;;;;;;;;;21.34;38.49;101331.23;103293;1290;71340;-79
2024/04/06 08:13:34;;;;;;;;;;;;;;;21.34;38.33;101335.33;103575;1290;64293;-78
2024/04/06 08:15:59;;;;;;;;;;;;;;;21.35;38.51;101335.46;103956;1291;62900;-79
2024/04/06 08:18:25;;;;;;;;;;;;;;;21.34;38.38;101338.18;103847;1291;62910;-79
2024/04/06 08:20:52;;;;;;;;;;;;;;;21.34;38.36;101342.52;103874;1289;62824;-79
2024/04/06 08:23:18;;;;;;;;;;;;;;;21.35;38.33;101343.71;103331;1292;64616;-79
2024/04/06 08:25:44;;;;;;;;;;;;;;;21.35;38.29;101342.42;103764;1290;63077;-80
2024/04/06 08:28:10;;;;;;;;;;;;;;;21.36;38.37;101338.25;103718;1289;62927;-78
2024/04/06 08:30:36;;;;;;;;;;;;;;;21.35;38.22;101329.38;103547;1294;62999;-78
2024/04/06 08:33:01;;;;;;;;;;;;;;;21.32;38.01;101326.31;103380;1292;63024;-79
2024/04/06 08:35:27;;;;;;;;;;;;;;;21.32;38.15;101319.75;103722;1291;63454;-79
2024/04/06 08:37:52;;;;;;;;;;;;;;;21.33;38.30;101314.30;103726;1289;63723;-78
2024/04/06 08:40:18;;;;;;;;;;;;;;;21.34;38.40;101312.42;103276;1291;63669;-77
2024/04/06 08:42:44;;;;;;;;;;;;;;;21.33;38.29;101316.21;103398;1292;63006;-78
2024/04/06 08:45:10;;;;;;;;;;;;;;;21.31;37.91;101325.12;103233;1291;63004;-78
2024/04/06 08:47:36;;;;;;;;;;;;;;;21.26;37.99;101324.36;103205;1294;63963;-78
2024/04/06 08:50:09;;;;;;;;;;;;;;;21.25;37.90;101323.36;103280;1290;63760;-78
2024/04/06 08:52:36;;;;;;;;;;;;;;;21.26;37.92;101318.84;102996;1291;63047;-78
2024/04/06 08:55:03;;;;;;;;;;;;;;;21.29;37.88;101312.58;103307;1289;73649;-77
2024/04/06 08:57:32;;;;;;;;;;;;;;;21.31;37.99;101307.23;103023;1293;76179;-77
2024/04/06 08:59:58;;;;;;;;;;;;;;;21.31;37.82;101295.58;103132;1291;62896;-78
2024/04/06 09:02:23;;;;;;;;;;;;;;;21.31;37.84;101287.03;103081;1293;63276;-78
2024/04/06 09:04:49;;;;;;;;;;;;;;;21.31;37.61;101292.39;103120;1297;63020;-78
2024/04/06 09:07:15;;;;;;;;;;;;;;;21.29;37.38;101297.91;102826;1293;64124;-78
2024/04/06 09:09:41;;;;;;;;;;;;;;;21.28;37.31;101301.19;102996;1294;63054;-78
2024/04/06 09:12:07;;;;;;;;;;;;;;;21.23;37.30;101297.86;103277;1300;62922;-78
2024/04/06 09:14:37;;;;;;;;;;;;;;;21.23;37.45;101292.16;103172;1292;62926;-77
2024/04/06 09:17:03;;;;;;;;;;;;;;;21.23;37.36;101285.91;102865;1295;72595;-77
2024/04/06 09:19:29;;;;;;;;;;;;;;;21.19;37.09;101282.77;103033;1294;63011;-78
2024/04/06 09:21:56;;;;;;;;;;;;;;;21.17;36.92;101291.13;103332;1292;62985;-77
2024/04/06 09:24:24;;;;;;;;;;;;;;;21.17;36.77;101293.81;103500;1292;63005;-78
2024/04/06 09:26:50;;;;;;;;;;;;;;;21.17;36.85;101293.99;102945;1298;72289;-78
2024/04/06 09:29:16;;;;;;;;;;;;;;;21.19;36.95;101286.36;103038;1289;75846;-78
2024/04/06 09:31:44;;;;;;;;;;;;;;;21.20;36.87;101276.04;103309;1294;63462;-78
2024/04/06 09:34:09;;;;;;;;;;;;;;;21.23;36.98;101279.30;103174;1291;62944;-79
2024/04/06 09:36:35;;;;;;;;;;;;;;;21.24;36.82;101282.96;102878;1294;63021;-78
2024/04/06 09:39:01;;;;;;;;;;;;;;;21.26;37.05;101284.98;102897;1292;63032;-79
2024/04/06 09:41:26;;;;;;;;;;;;;;;21.28;36.90;101279.69;102912;1294;63020;-80
2024/04/06 09:43:57;;;;;;;;;;;;;;;21.29;36.84;101276.94;103176;1294;62921;-79
2024/04/06 09:46:23;;;;;;;;;;;;;;;21.30;36.98;101272.58;103136;1294;63000;-79
2024/04/06 09:48:48;;;;;;;;;;;;;;;21.31;36.93;101275.02;102958;1295;63020;-78
2024/04/06 09:51:14;;;;;;;;;;;;;;;21.33;37.00;101269.92;102914;1294;63922;-78
2024/04/06 09:53:41;;;;;;;;;;;;;;;21.33;36.91;101266.85;103132;1294;64123;-78
2024/04/06 09:56:10;;;;;;;;;;;;;;;21.34;36.98;101263.20;102967;1291;63436;-78
2024/04/06 09:58:37;;;;;;;;;;;;;;;21.34;36.97;101257.44;102933;1292;72436;-78
2024/04/06 10:01:11;;;;;;;;;;;;;;;21.35;37.04;101253.10;103134;1292;63049;-78
2024/04/06 10:03:41;;;;;;;;;;;;;;;21.36;36.95;101254.29;103163;1292;62928;-79
2024/04/06 10:06:11;;;;;;;;;;;;;;;21.36;37.00;101253.21;103108;1289;63005;-78
2024/04/06 10:08:46;;;;;;;;;;;;;;;21.38;37.11;101250.25;102901;1292;72538;-78
2024/04/06 10:11:13;;;;;;;;;;;;;;;21.37;37.06;101241.30;103177;1291;76138;-79
2024/04/06 10:13:40;;;;;;;;;;;;;;;21.38;36.99;101238.41;102965;1292;63263;-78
2024/04/06 10:16:06;;;;;;;;;;;;;;;21.39;36.93;101234.77;102912;1294;62992;-79
2024/04/06 10:18:31;;;;;;;;;;;;;;;21.39;37.04;101231.36;102851;1293;63465;-79
2024/04/06 10:20:58;;;;;;;;;;;;;;;21.39;37.01;101228.27;102730;1294;63827;-79
2024/04/06 10:23:24;;;;;;;;;;;;;;;21.40;37.04;101231.12;102662;1294;64011;-79
2024/04/06 10:25:59;;;;;;;;;;;;;;;21.40;36.91;101227.30;102848;1297;63007;-79
2024/04/06 10:28:25;;;;;;;;;;;;;;;21.41;37.08;101218.86;102658;1293;71329;-78
2024/04/06 10:30:50;;;;;;;;;;;;;;;21.42;37.03;101216.14;102805;1293;63201;-77
2024/04/06 10:33:16;;;;;;;;;;;;;;;21.42;37.08;101210.39;102861;1293;63083;-78
2024/04/06 10:35:42;;;;;;;;;;;;;;;21.42;37.05;101207.67;102758;1295;63178;-78
2024/04/06 10:38:07;;;;;;;;;;;;;;;21.42;37.07;101203.35;102511;1295;63482;-78
2024/04/06 10:40:37;;;;;;;;;;;;;;;21.43;37.07;101204.55;102836;1297;72541;-76
2024/04/06 10:43:02;;;;;;;;;;;;;;;21.43;37.08;101201.16;102771;1293;75914;-78
2024/04/06 10:45:28;;;;;;;;;;;;;;;21.43;37.05;101196.67;102659;1300;63014;-78
2024/04/06 10:47:54;;;;;;;;;;;;;;;21.44;37.02;101194.67;102509;1300;62966;-77
2024/04/06 10:50:20;;;;;;;;;;;;;;;21.45;37.14;101193.40;102599;1294;62997;-79
2024/04/06 10:52:47;;;;;;;;;;;;;;;21.45;37.18;101193.94;102741;1297;64292;-79
2024/04/06 10:55:19;;;;;;;;;;;;;;;21.44;37.04;101193.23;102820;1295;63064;-77
2024/04/06 10:57:44;;;;;;;;;;;;;;;21.45;36.99;101189.82;102861;1297;62915;-78
2024/04/06 11:00:10;;;;;;;;;;;;;;;21.45;37.09;101185.14;102784;1297;62994;-78
2024/04/06 11:02:37;;;;;;;;;;;;;;;21.45;37.11;101177.63;102850;1295;63051;-78
2024/04/06 11:05:03;;;;;;;;;;;;;;;21.45;37.11;101172.95;102834;1295;63059;-76
2024/04/06 11:07:29;;;;;;;;;;;;;;;21.45;37.21;101171.52;102807;1296;62961;-77
2024/04/06 11:09:55;;;;;;;;;;;;;;;21.45;37.26;101167.77;102870;1297;63076;-77
2024/04/06 11:12:20;;;;;;;;;;;;;;;21.45;37.21;101164.35;102749;1294;62984;-78
2024/04/06 11:14:49;;;;;;;;;;;;;;;21.45;37.16;101158.45;102839;1297;63451;-79
2024/04/06 11:17:15;;;;;;;;;;;;;;;21.45;37.20;101154.50;102825;1297;63181;-78
2024/04/06 11:19:40;;;;;;;;;;;;;;;21.45;37.14;101153.98;102846;1292;63656;-78
2024/04/06 11:22:06;;;;;;;;;;;;;;;21.45;37.15;101151.45;102853;1295;63806;-78
2024/04/06 11:24:31;;;;;;;;;;;;;;;21.45;37.12;101148.77;102906;1294;63014;-78
2024/04/06 11:27:07;;;;;;;;;;;;;;;21.45;37.17;101141.44;102976;1291;63031;-78
2024/04/06 11:29:33;;;;;;;;;;;;;;;21.45;37.28;101140.55;102903;1292;63060;-78
2024/04/06 11:31:59;;;;;;;;;;;;;;;21.45;37.16;101130.73;103139;1291;62907;-78
2024/04/06 11:34:25;;;;;;;;;;;;;;;21.45;37.22;101125.01;102890;1294;63055;-78
2024/04/06 11:36:50;;;;;;;;;;;;;;;21.45;37.20;101123.39;102950;1294;64152;-79
2024/04/06 11:39:16;;;;;;;;;;;;;;;21.44;37.22;101119.99;103098;1294;64007;-77
2024/04/06 11:41:41;;;;;;;;;;;;;;;21.45;37.20;101114.40;102934;1290;63020;-78
2024/04/06 11:44:07;;;;;;;;;;;;;;;21.44;37.30;101115.49;102886;1292;63064;-78
2024/04/06 11:46:34;;;;;;;;;;;;;;;21.44;37.21;101112.81;102902;1290;63082;-78
2024/04/06 11:49:03;;;;;;;;;;;;;;;21.45;37.14;101111.00;103079;1294;63626;-78
2024/04/06 11:51:29;;;;;;;;;;;;;;;21.45;37.25;101110.10;102987;1289;63343;-79
2024/04/06 11:53:54;;;;;;;;;;;;;;;21.46;37.32;101103.79;103102;1289;62907;-79
2024/04/06 11:56:20;;;;;;;;;;;;;;;21.46;37.32;101101.27;103115;1290;63975;-79
2024/04/06 11:58:45;;;;;;;;;;;;;;;21.46;37.30;101099.84;102901;1294;64106;-78
2024/04/06 12:01:11;;;;;;;;;;;;;;;21.46;37.26;101099.29;102941;1290;63665;-79
2024/04/06 12:03:36;;;;;;;;;;;;;;;21.46;37.31;101091.05;103099;1294;63801;-78
2024/04/06 12:06:03;;;;;;;;;;;;;;;21.47;37.31;101087.56;103137;1290;64084;-79
2024/04/06 12:08:28;;;;;;;;;;;;;;;21.47;37.26;101087.02;103112;1292;64066;-78
2024/04/06 12:10:55;;;;;;;;;;;;;;;21.47;37.34;101086.83;102909;1294;64056;-79
2024/04/06 12:13:21;;;;;;;;;;;;;;;21.47;37.34;101084.34;103105;1292;63296;-78
2024/04/06 12:15:47;;;;;;;;;;;;;;;21.48;37.33;101081.98;102932;1292;63008;-78
2024/04/06 12:18:13;;;;;;;;;;;;;;;21.48;37.37;101080.52;102880;1294;63365;-78
2024/04/06 12:20:39;;;;;;;;;;;;;;;21.47;37.43;101077.88;103250;1290;63103;-81